Gikumi — VY6580 — position and weather

sailwx.info

Track history (hours):
 
Tides and Currents Weather Stations Pressure Air Temp Water Temp Dewpoint Dewpoint Depression Visibility Wind Speed Wind Dir Waves Ship Positions

Gikumi

Last reported at 2018-Feb-21 18:58 UTC. Time now 2018-Feb-21 19:16 UTC.
Position N 48°40' W 123°24'.

Length 18 m.

Type: Passenger vessel. MMSI: 316003895.

Date/timePositionNaut miles runAvg speedWind from/ knotsBaromVisibWave heightAir tempDewpointWater temp
2018-Feb-21 18:58N 48°40' W 123°24'0 0.4
2018-Feb-21 18:11N 48°40' W 123°24'0 0.0
2018-Feb-21 11:14N 48°40' W 123°24'0 0.0
2018-Feb-21 10:56N 48°40' W 123°24'0 0.0
2018-Feb-21 09:14N 48°40' W 123°24'0 0.0
2018-Feb-21 07:56N 48°40' W 123°24'0 0.0
2018-Feb-21 07:02N 48°40' W 123°24'0 0.1
2018-Feb-21 06:56N 48°40' W 123°24'0 0.0
2018-Feb-21 05:20N 48°40' W 123°24'0 0.0
2018-Feb-21 04:14N 48°40' W 123°24'0 0.0
2018-Feb-21 03:50N 48°40' W 123°24'0 0.0
2018-Feb-21 03:26N 48°40' W 123°24'0 0.0
2018-Feb-21 02:50N 48°40' W 123°24'0 0.0
2018-Feb-21 02:26N 48°40' W 123°24'0 0.0
2018-Feb-21 01:56N 48°40' W 123°24'0 0.0
2018-Feb-21 01:26N 48°40' W 123°24'0 0.0
2018-Feb-21 00:56N 48°40' W 123°24'0 0.0
2018-Feb-21 00:26N 48°40' W 123°24'0 0.0
2018-Feb-20 23:23N 48°40' W 123°24'0 0.0
2018-Feb-20 22:59N 48°40' W 123°24'  
2018-Feb-17 22:06N 48°41' W 123°25'1 4.3
2018-Feb-17 21:58N 48°40' W 123°24'3 7.4
2018-Feb-17 21:30N 48°37' W 123°23'4 8.2
2018-Feb-17 21:00N 48°33' W 123°21'4 7.6
2018-Feb-17 20:30N 48°30' W 123°18'3 6.7
2018-Feb-17 20:00N 48°27' W 123°16'2 4.2
2018-Feb-17 19:30N 48°26' W 123°18'0 0.0
2018-Feb-17 19:00N 48°26' W 123°18'0 0.0
2018-Feb-17 18:30N 48°26' W 123°18'0 0.0
2018-Feb-17 18:00N 48°26' W 123°18'0 0.0
2018-Feb-17 17:30N 48°26' W 123°18'0 0.0
2018-Feb-17 16:57N 48°26' W 123°18'0 0.0
2018-Feb-17 16:30N 48°26' W 123°18'0 0.0
2018-Feb-17 16:00N 48°26' W 123°18'0 0.0
2018-Feb-17 15:30N 48°26' W 123°18'0 0.0
2018-Feb-17 15:00N 48°26' W 123°18'0 0.0
2018-Feb-17 14:30N 48°26' W 123°18'0 0.0
2018-Feb-17 14:00N 48°26' W 123°18'0 0.0
2018-Feb-17 13:30N 48°26' W 123°18'0 0.0
2018-Feb-17 13:00N 48°26' W 123°18'0 0.0
2018-Feb-17 12:30N 48°26' W 123°18'0 0.0
2018-Feb-17 12:00N 48°26' W 123°18'0 0.0
2018-Feb-17 11:30N 48°26' W 123°18'0 0.0
2018-Feb-17 11:00N 48°26' W 123°18'0 0.0
2018-Feb-17 10:30N 48°26' W 123°18'0 0.0
2018-Feb-17 10:00N 48°26' W 123°18'0 0.0
2018-Feb-17 09:30N 48°26' W 123°18'0 0.0
2018-Feb-17 09:00N 48°26' W 123°18'0 0.0
2018-Feb-17 08:30N 48°26' W 123°18'0 0.0
2018-Feb-17 08:00N 48°26' W 123°18'0 0.0
2018-Feb-17 07:30N 48°26' W 123°18'0 0.0
2018-Feb-17 07:00N 48°26' W 123°18'0 0.0
2018-Feb-17 06:30N 48°26' W 123°18'0 0.0
2018-Feb-17 06:00N 48°26' W 123°18'0 0.0
2018-Feb-17 05:30N 48°26' W 123°18'0 0.0
2018-Feb-17 05:00N 48°26' W 123°18'0 0.0
2018-Feb-17 04:30N 48°26' W 123°18'0 0.0
2018-Feb-17 04:00N 48°26' W 123°18'0 0.0
2018-Feb-17 03:30N 48°26' W 123°18'0 0.0
2018-Feb-17 03:00N 48°26' W 123°18'0 0.0
2018-Feb-17 02:30N 48°26' W 123°18'0 0.0
2018-Feb-17 02:00N 48°26' W 123°18'0 0.0
2018-Feb-17 01:30N 48°26' W 123°18'0 0.0
2018-Feb-17 01:00N 48°26' W 123°18'0 0.0
2018-Feb-17 00:30N 48°26' W 123°18'0 0.0
2018-Feb-17 00:00N 48°26' W 123°18'0 0.0
2018-Feb-16 23:30N 48°26' W 123°18'0 0.0
2018-Feb-16 22:57N 48°26' W 123°18'0 0.0
2018-Feb-16 22:30N 48°26' W 123°18'0 0.0
2018-Feb-16 22:00N 48°26' W 123°18'0 0.0
2018-Feb-16 21:30N 48°26' W 123°18'0 0.0
2018-Feb-16 21:00N 48°26' W 123°18'0 0.0
2018-Feb-16 20:30N 48°26' W 123°18'0 0.0
2018-Feb-16 20:00N 48°26' W 123°18'0 0.0
2018-Feb-16 19:30N 48°26' W 123°18'0 0.0
2018-Feb-16 19:00N 48°26' W 123°18'0 0.0
2018-Feb-16 18:30N 48°26' W 123°18'0 0.0
2018-Feb-16 18:00N 48°26' W 123°18'0 0.0
2018-Feb-16 17:30N 48°26' W 123°18'0 0.0
2018-Feb-16 16:57N 48°26' W 123°18'0 0.0
2018-Feb-16 16:24N 48°26' W 123°18'0 0.0
2018-Feb-16 16:00N 48°26' W 123°18'0 0.0
2018-Feb-16 15:30N 48°26' W 123°18'0 0.0
2018-Feb-16 15:00N 48°26' W 123°18'0 0.0
2018-Feb-16 14:30N 48°26' W 123°18'0 0.0
2018-Feb-16 14:00N 48°26' W 123°18'0 0.0
2018-Feb-16 13:30N 48°26' W 123°18'0 0.0
2018-Feb-16 13:00N 48°26' W 123°18'0 0.0
2018-Feb-16 12:30N 48°26' W 123°18'0 0.0
2018-Feb-16 12:00N 48°26' W 123°18'0 0.0
2018-Feb-16 11:30N 48°26' W 123°18'0 0.0
2018-Feb-16 11:00N 48°26' W 123°18'0 0.0
2018-Feb-16 10:30N 48°26' W 123°18'0 0.0
2018-Feb-16 10:00N 48°26' W 123°18'0 0.0
2018-Feb-16 09:30N 48°26' W 123°18'0 0.0
2018-Feb-16 09:00N 48°26' W 123°18'0 0.0
2018-Feb-16 08:30N 48°26' W 123°18'0 0.0
2018-Feb-16 08:00N 48°26' W 123°18'0 0.0
2018-Feb-16 07:30N 48°26' W 123°18'0 0.0
2018-Feb-16 07:00N 48°26' W 123°18'0 0.0
2018-Feb-16 06:30N 48°26' W 123°18'0 0.0
2018-Feb-16 06:00N 48°26' W 123°18'0 0.0
2018-Feb-16 05:30N 48°26' W 123°18'0 0.0
2018-Feb-16 04:54N 48°26' W 123°18'0 0.0
2018-Feb-16 04:27N 48°26' W 123°18'0 0.0
2018-Feb-16 04:00N 48°26' W 123°18'0 0.0
2018-Feb-16 03:30N 48°26' W 123°18'0 0.0
2018-Feb-16 03:00N 48°26' W 123°18'0 0.0
2018-Feb-16 02:30N 48°26' W 123°18'0 0.0
2018-Feb-16 02:00N 48°26' W 123°18'0 0.0
2018-Feb-16 01:30N 48°26' W 123°18'0 0.0
2018-Feb-16 01:00N 48°26' W 123°18'0 0.0
2018-Feb-16 00:30N 48°26' W 123°18'0 0.0
2018-Feb-15 23:57N 48°26' W 123°18'0 0.0
2018-Feb-15 23:30N 48°26' W 123°18'0 0.0
2018-Feb-15 23:00N 48°26' W 123°18'0 0.0
2018-Feb-15 22:30N 48°26' W 123°18'0 0.0
2018-Feb-15 22:00N 48°26' W 123°18'0 0.0
2018-Feb-15 21:27N 48°26' W 123°18'0 0.0
2018-Feb-15 21:00N 48°26' W 123°18'0 0.0
2018-Feb-15 20:30N 48°26' W 123°18'0 0.0
2018-Feb-15 19:03N 48°26' W 123°18'0 0.0
2018-Feb-15 18:54N 48°26' W 123°18'0 0.0
2018-Feb-15 18:24N 48°26' W 123°18'0 0.0
2018-Feb-15 17:54N 48°26' W 123°18'0 0.0
2018-Feb-15 17:27N 48°26' W 123°18'0 0.0
2018-Feb-15 16:57N 48°26' W 123°18'0 0.0
2018-Feb-15 16:30N 48°26' W 123°18'0 0.0
2018-Feb-15 16:00N 48°26' W 123°18'0 0.0
2018-Feb-15 15:30N 48°26' W 123°18'0 0.0
2018-Feb-15 15:00N 48°26' W 123°18'0 0.0
2018-Feb-15 14:30N 48°26' W 123°18'0 0.0
2018-Feb-15 14:00N 48°26' W 123°18'0 0.0
2018-Feb-15 13:30N 48°26' W 123°18'0 0.0
2018-Feb-15 13:00N 48°26' W 123°18'0 0.0
2018-Feb-15 12:27N 48°26' W 123°18'0 0.0
2018-Feb-15 12:00N 48°26' W 123°18'0 0.0
2018-Feb-15 11:30N 48°26' W 123°18'0 0.0
2018-Feb-15 11:00N 48°26' W 123°18'0 0.0
2018-Feb-15 10:30N 48°26' W 123°18'0 0.0
2018-Feb-15 10:00N 48°26' W 123°18'0 0.0
2018-Feb-15 09:30N 48°26' W 123°18'0 0.0
2018-Feb-15 09:00N 48°26' W 123°18'0 0.0
2018-Feb-15 08:30N 48°26' W 123°18'0 0.0
2018-Feb-15 08:00N 48°26' W 123°18'0 0.0
2018-Feb-15 07:27N 48°26' W 123°18'0 0.0
2018-Feb-15 07:00N 48°26' W 123°18'0 0.0
2018-Feb-15 06:24N 48°26' W 123°18'0 0.0
2018-Feb-15 06:00N 48°26' W 123°18'0 0.0
2018-Feb-15 05:30N 48°26' W 123°18'0 0.0
2018-Feb-15 05:00N 48°26' W 123°18'0 0.0
2018-Feb-15 04:30N 48°26' W 123°18'0 0.0
2018-Feb-15 04:00N 48°26' W 123°18'0 0.0
2018-Feb-15 03:30N 48°26' W 123°18'0 0.0
2018-Feb-15 03:00N 48°26' W 123°18'0 0.0
2018-Feb-15 02:30N 48°26' W 123°18'0 0.0
2018-Feb-15 02:00N 48°26' W 123°18'0 0.0
2018-Feb-15 01:30N 48°26' W 123°18'0 0.0
2018-Feb-15 01:00N 48°26' W 123°18'0 0.0
2018-Feb-15 00:30N 48°26' W 123°18'0 0.0
2018-Feb-15 00:00N 48°26' W 123°18'0 0.0
2018-Feb-14 23:30N 48°26' W 123°18'0 0.0
2018-Feb-14 23:00N 48°26' W 123°18'0 0.0
2018-Feb-14 22:30N 48°26' W 123°18'0 0.0
2018-Feb-14 21:51N 48°26' W 123°18'0 0.0
2018-Feb-14 21:30N 48°26' W 123°18'0 0.0
2018-Feb-14 20:54N 48°26' W 123°18'0 0.0
2018-Feb-14 20:30N 48°26' W 123°18'0 0.0
2018-Feb-14 19:51N 48°26' W 123°18'0 0.0
2018-Feb-14 19:18N 48°26' W 123°18'0 0.0
2018-Feb-14 18:54N 48°26' W 123°18'0 0.0
2018-Feb-14 18:21N 48°26' W 123°18'0 0.0
2018-Feb-14 18:00N 48°26' W 123°18'0 0.0
2018-Feb-14 17:27N 48°26' W 123°18'0 0.0
2018-Feb-14 16:57N 48°26' W 123°18'0 0.0
2018-Feb-14 16:30N 48°26' W 123°18'0 0.0
2018-Feb-14 15:57N 48°26' W 123°18'0 0.0
2018-Feb-14 15:30N 48°26' W 123°18'0 0.0
2018-Feb-14 15:00N 48°26' W 123°18'0 0.0
2018-Feb-14 14:30N 48°26' W 123°18'0 0.0
2018-Feb-14 14:00N 48°26' W 123°18'0 0.0
2018-Feb-14 13:30N 48°26' W 123°18'0 0.0
2018-Feb-14 12:57N 48°26' W 123°18'0 0.0
2018-Feb-14 12:30N 48°26' W 123°18'0 0.0
2018-Feb-14 12:00N 48°26' W 123°18'0 0.0
2018-Feb-14 11:30N 48°26' W 123°18'0 0.0
2018-Feb-14 11:00N 48°26' W 123°18'0 0.0
2018-Feb-14 10:28N 48°26' W 123°18'0 0.0
2018-Feb-14 09:58N 48°26' W 123°18'0 0.0
2018-Feb-14 09:28N 48°26' W 123°18'0 0.0
2018-Feb-14 08:58N 48°26' W 123°18'0 0.0
2018-Feb-14 08:28N 48°26' W 123°18'0 0.0
2018-Feb-14 07:58N 48°26' W 123°18'0 0.0
2018-Feb-14 07:28N 48°26' W 123°18'0 0.0
2018-Feb-14 06:58N 48°26' W 123°18'0 0.0
2018-Feb-14 06:28N 48°26' W 123°18'0 0.0
2018-Feb-14 05:58N 48°26' W 123°18'0 0.0
2018-Feb-14 05:28N 48°26' W 123°18'0 0.0
2018-Feb-14 04:58N 48°26' W 123°18'0 0.0
2018-Feb-14 04:28N 48°26' W 123°18'0 0.0
2018-Feb-14 03:58N 48°26' W 123°18'0 0.0
2018-Feb-14 03:28N 48°26' W 123°18'0 0.0
2018-Feb-14 02:58N 48°26' W 123°18'0 0.0
2018-Feb-14 02:28N 48°26' W 123°18'0 0.0
2018-Feb-14 01:58N 48°26' W 123°18'0 0.0
2018-Feb-14 01:28N 48°26' W 123°18'0 0.0
2018-Feb-14 00:58N 48°26' W 123°18'0 0.0
2018-Feb-14 00:28N 48°26' W 123°18'0 0.0
2018-Feb-13 23:58N 48°26' W 123°18'0 0.0
2018-Feb-13 23:28N 48°26' W 123°18'0 0.0
2018-Feb-13 22:58N 48°26' W 123°18'0 0.0
2018-Feb-13 22:28N 48°26' W 123°18'0 0.0
2018-Feb-13 21:58N 48°26' W 123°18'0 0.0
2018-Feb-13 21:28N 48°26' W 123°18'0 0.0
2018-Feb-13 20:58N 48°26' W 123°18'0 0.0
2018-Feb-13 20:28N 48°26' W 123°18'0 0.0
2018-Feb-13 19:58N 48°26' W 123°18'0 0.0
2018-Feb-13 19:28N 48°26' W 123°18'0 0.0
2018-Feb-13 18:58N 48°26' W 123°18'0 0.0
2018-Feb-13 18:28N 48°26' W 123°18'0 0.0
2018-Feb-13 17:58N 48°26' W 123°18'0 0.0
2018-Feb-13 17:16N 48°26' W 123°18'0 0.0
2018-Feb-13 16:58N 48°26' W 123°18'0 0.0
2018-Feb-13 16:28N 48°26' W 123°18'0 0.0
2018-Feb-13 15:58N 48°26' W 123°18'0 0.0
2018-Feb-13 15:28N 48°26' W 123°18'0 0.0
2018-Feb-13 14:58N 48°26' W 123°18'0 0.0
2018-Feb-13 14:28N 48°26' W 123°18'0 0.0
2018-Feb-13 13:59N 48°26' W 123°18'0 0.0
2018-Feb-13 13:28N 48°26' W 123°18'0 0.0
2018-Feb-13 12:58N 48°26' W 123°18'0 0.0
2018-Feb-13 12:28N 48°26' W 123°18'0 0.0
2018-Feb-13 11:58N 48°26' W 123°18'0 0.0
2018-Feb-13 11:28N 48°26' W 123°18'0 0.0
2018-Feb-13 10:58N 48°26' W 123°18'0 0.0
2018-Feb-13 10:28N 48°26' W 123°18'0 0.0
2018-Feb-13 09:58N 48°26' W 123°18'0 0.0
2018-Feb-13 09:28N 48°26' W 123°18'0 0.0
2018-Feb-13 08:58N 48°26' W 123°18'0 0.0
2018-Feb-13 08:28N 48°26' W 123°18'0 0.0
2018-Feb-13 07:58N 48°26' W 123°18'0 0.0
2018-Feb-13 07:28N 48°26' W 123°18'0 0.0
2018-Feb-13 06:58N 48°26' W 123°18'0 0.0
2018-Feb-13 06:28N 48°26' W 123°18'0 0.0
2018-Feb-13 05:58N 48°26' W 123°18'0 0.0
2018-Feb-13 05:28N 48°26' W 123°18'0 0.0
2018-Feb-13 04:58N 48°26' W 123°18'0 0.0
2018-Feb-13 04:28N 48°26' W 123°18'0 0.0
2018-Feb-13 03:58N 48°26' W 123°18'0 0.0
2018-Feb-13 03:28N 48°26' W 123°18'0 0.0
2018-Feb-13 02:58N 48°26' W 123°18'0 0.0
2018-Feb-13 02:28N 48°26' W 123°18'0 0.0
2018-Feb-13 01:58N 48°26' W 123°18'0 0.0
2018-Feb-13 01:28N 48°26' W 123°18'0 0.0
2018-Feb-13 00:58N 48°26' W 123°18'0 0.0
2018-Feb-13 00:28N 48°26' W 123°18'0 0.0
2018-Feb-12 23:58N 48°26' W 123°18'0 0.0
2018-Feb-12 23:28N 48°26' W 123°18'0 0.0
2018-Feb-12 22:58N 48°26' W 123°18'0 0.0
2018-Feb-12 22:28N 48°26' W 123°18'0 0.0
2018-Feb-12 21:58N 48°26' W 123°18'0 0.0
2018-Feb-12 21:28N 48°26' W 123°18'0 0.0
2018-Feb-12 20:58N 48°26' W 123°18'0 0.0
2018-Feb-12 20:28N 48°26' W 123°18'0 0.0
2018-Feb-12 19:55N 48°26' W 123°18'0 0.0
2018-Feb-12 19:28N 48°26' W 123°18'0 0.0
2018-Feb-12 18:58N 48°26' W 123°18'0 0.0
2018-Feb-12 18:28N 48°26' W 123°18'0 0.0
2018-Feb-12 17:58N 48°26' W 123°18'0 0.0
2018-Feb-12 17:25N 48°26' W 123°18'0 0.0
2018-Feb-12 16:58N 48°26' W 123°18'0 0.0
2018-Feb-12 16:28N 48°26' W 123°18'0 0.0
2018-Feb-12 15:58N 48°26' W 123°18'0 0.0
2018-Feb-12 15:16N 48°26' W 123°18'0 0.0
2018-Feb-12 14:58N 48°26' W 123°18'0 0.0
2018-Feb-12 14:28N 48°26' W 123°18'0 0.0
2018-Feb-12 13:58N 48°26' W 123°18'0 0.0
2018-Feb-12 13:28N 48°26' W 123°18'0 0.0
2018-Feb-12 12:55N 48°26' W 123°18'0 0.0
2018-Feb-12 12:28N 48°26' W 123°18'0 0.0
2018-Feb-12 11:58N 48°26' W 123°18'0 0.0
2018-Feb-12 11:28N 48°26' W 123°18'0 0.0
2018-Feb-12 10:58N 48°26' W 123°18'0 0.0
2018-Feb-12 10:28N 48°26' W 123°18'0 0.0
2018-Feb-12 09:58N 48°26' W 123°18'0 0.0
2018-Feb-12 09:25N 48°26' W 123°18'0 0.0
2018-Feb-12 08:55N 48°26' W 123°18'0 0.0
2018-Feb-12 05:58N 48°26' W 123°18'0 0.0
2018-Feb-12 05:28N 48°26' W 123°18'0 0.0
2018-Feb-12 04:58N 48°26' W 123°18'0 0.0
2018-Feb-12 04:28N 48°26' W 123°18'0 0.0
2018-Feb-12 03:58N 48°26' W 123°18'0 0.0
2018-Feb-12 03:25N 48°26' W 123°18'0 0.0
2018-Feb-12 02:58N 48°26' W 123°18'0 0.0
2018-Feb-12 02:22N 48°26' W 123°18'0 0.0
2018-Feb-12 01:55N 48°26' W 123°18'0 0.0
2018-Feb-12 01:22N 48°26' W 123°18'0 0.0
2018-Feb-12 00:52N 48°26' W 123°18'0 0.0
2018-Feb-12 00:10N 48°26' W 123°18'0 0.0
2018-Feb-11 23:58N 48°26' W 123°18'0 0.0
2018-Feb-11 23:28N 48°26' W 123°18'0 0.0
2018-Feb-11 22:58N 48°26' W 123°18'0 0.0
2018-Feb-11 22:28N 48°26' W 123°18'0 0.0
2018-Feb-11 21:58N 48°26' W 123°18'0 0.0
2018-Feb-11 21:28N 48°26' W 123°18'0 0.0
2018-Feb-11 20:58N 48°26' W 123°18'0 0.0
2018-Feb-11 20:28N 48°26' W 123°18'0 0.0
2018-Feb-11 19:58N 48°26' W 123°18'0 0.0
2018-Feb-11 19:28N 48°26' W 123°18'  
Track history (hours):
 
Tides and Currents Weather Stations Pressure Air Temp Water Temp Dewpoint Dewpoint Depression Visibility Wind Speed Wind Dir Waves Ship Positions

Gikumi

Last reported at 2018-Feb-21 18:58 UTC. Time now 2018-Feb-21 19:16 UTC.
Position N 48°40' W 123°24'.

Length 18 m.

Type: Passenger vessel. MMSI: 316003895.

Date/timePositionNaut miles runAvg speedWind from/ knotsBaromVisibWave heightAir tempDewpointWater temp
2018-Feb-21 18:58N 48°40' W 123°24'0 0.4
2018-Feb-21 18:11N 48°40' W 123°24'0 0.0
2018-Feb-21 11:14N 48°40' W 123°24'0 0.0
2018-Feb-21 10:56N 48°40' W 123°24'0 0.0
2018-Feb-21 09:14N 48°40' W 123°24'0 0.0
2018-Feb-21 07:56N 48°40' W 123°24'0 0.0
2018-Feb-21 07:02N 48°40' W 123°24'0 0.1
2018-Feb-21 06:56N 48°40' W 123°24'0 0.0
2018-Feb-21 05:20N 48°40' W 123°24'0 0.0
2018-Feb-21 04:14N 48°40' W 123°24'0 0.0
2018-Feb-21 03:50N 48°40' W 123°24'0 0.0
2018-Feb-21 03:26N 48°40' W 123°24'0 0.0
2018-Feb-21 02:50N 48°40' W 123°24'0 0.0
2018-Feb-21 02:26N 48°40' W 123°24'0 0.0
2018-Feb-21 01:56N 48°40' W 123°24'0 0.0
2018-Feb-21 01:26N 48°40' W 123°24'0 0.0
2018-Feb-21 00:56N 48°40' W 123°24'0 0.0
2018-Feb-21 00:26N 48°40' W 123°24'0 0.0
2018-Feb-20 23:23N 48°40' W 123°24'0 0.0
2018-Feb-20 22:59N 48°40' W 123°24'  
2018-Feb-17 22:06N 48°41' W 123°25'1 4.3
2018-Feb-17 21:58N 48°40' W 123°24'3 7.4
2018-Feb-17 21:30N 48°37' W 123°23'4 8.2
2018-Feb-17 21:00N 48°33' W 123°21'4 7.6
2018-Feb-17 20:30N 48°30' W 123°18'3 6.7
2018-Feb-17 20:00N 48°27' W 123°16'2 4.2
2018-Feb-17 19:30N 48°26' W 123°18'0 0.0
2018-Feb-17 19:00N 48°26' W 123°18'0 0.0
2018-Feb-17 18:30N 48°26' W 123°18'0 0.0
2018-Feb-17 18:00N 48°26' W 123°18'0 0.0
2018-Feb-17 17:30N 48°26' W 123°18'0 0.0
2018-Feb-17 16:57N 48°26' W 123°18'0 0.0
2018-Feb-17 16:30N 48°26' W 123°18'0 0.0
2018-Feb-17 16:00N 48°26' W 123°18'0 0.0
2018-Feb-17 15:30N 48°26' W 123°18'0 0.0
2018-Feb-17 15:00N 48°26' W 123°18'0 0.0
2018-Feb-17 14:30N 48°26' W 123°18'0 0.0
2018-Feb-17 14:00N 48°26' W 123°18'0 0.0
2018-Feb-17 13:30N 48°26' W 123°18'0 0.0
2018-Feb-17 13:00N 48°26' W 123°18'0 0.0
2018-Feb-17 12:30N 48°26' W 123°18'0 0.0
2018-Feb-17 12:00N 48°26' W 123°18'0 0.0
2018-Feb-17 11:30N 48°26' W 123°18'0 0.0
2018-Feb-17 11:00N 48°26' W 123°18'0 0.0
2018-Feb-17 10:30N 48°26' W 123°18'0 0.0
2018-Feb-17 10:00N 48°26' W 123°18'0 0.0
2018-Feb-17 09:30N 48°26' W 123°18'0 0.0
2018-Feb-17 09:00N 48°26' W 123°18'0 0.0
2018-Feb-17 08:30N 48°26' W 123°18'0 0.0
2018-Feb-17 08:00N 48°26' W 123°18'0 0.0
2018-Feb-17 07:30N 48°26' W 123°18'0 0.0
2018-Feb-17 07:00N 48°26' W 123°18'0 0.0
2018-Feb-17 06:30N 48°26' W 123°18'0 0.0
2018-Feb-17 06:00N 48°26' W 123°18'0 0.0
2018-Feb-17 05:30N 48°26' W 123°18'0 0.0
2018-Feb-17 05:00N 48°26' W 123°18'0 0.0
2018-Feb-17 04:30N 48°26' W 123°18'0 0.0
2018-Feb-17 04:00N 48°26' W 123°18'0 0.0
2018-Feb-17 03:30N 48°26' W 123°18'0 0.0
2018-Feb-17 03:00N 48°26' W 123°18'0 0.0
2018-Feb-17 02:30N 48°26' W 123°18'0 0.0
2018-Feb-17 02:00N 48°26' W 123°18'0 0.0
2018-Feb-17 01:30N 48°26' W 123°18'0 0.0
2018-Feb-17 01:00N 48°26' W 123°18'0 0.0
2018-Feb-17 00:30N 48°26' W 123°18'0 0.0
2018-Feb-17 00:00N 48°26' W 123°18'0 0.0
2018-Feb-16 23:30N 48°26' W 123°18'0 0.0
2018-Feb-16 22:57N 48°26' W 123°18'0 0.0
2018-Feb-16 22:30N 48°26' W 123°18'0 0.0
2018-Feb-16 22:00N 48°26' W 123°18'0 0.0
2018-Feb-16 21:30N 48°26' W 123°18'0 0.0
2018-Feb-16 21:00N 48°26' W 123°18'0 0.0
2018-Feb-16 20:30N 48°26' W 123°18'0 0.0
2018-Feb-16 20:00N 48°26' W 123°18'0 0.0
2018-Feb-16 19:30N 48°26' W 123°18'0 0.0
2018-Feb-16 19:00N 48°26' W 123°18'0 0.0
2018-Feb-16 18:30N 48°26' W 123°18'0 0.0
2018-Feb-16 18:00N 48°26' W 123°18'0 0.0
2018-Feb-16 17:30N 48°26' W 123°18'0 0.0
2018-Feb-16 16:57N 48°26' W 123°18'0 0.0
2018-Feb-16 16:24N 48°26' W 123°18'0 0.0
2018-Feb-16 16:00N 48°26' W 123°18'0 0.0
2018-Feb-16 15:30N 48°26' W 123°18'0 0.0
2018-Feb-16 15:00N 48°26' W 123°18'0 0.0
2018-Feb-16 14:30N 48°26' W 123°18'0 0.0
2018-Feb-16 14:00N 48°26' W 123°18'0 0.0
2018-Feb-16 13:30N 48°26' W 123°18'0 0.0
2018-Feb-16 13:00N 48°26' W 123°18'0 0.0
2018-Feb-16 12:30N 48°26' W 123°18'0 0.0
2018-Feb-16 12:00N 48°26' W 123°18'0 0.0
2018-Feb-16 11:30N 48°26' W 123°18'0 0.0
2018-Feb-16 11:00N 48°26' W 123°18'0 0.0
2018-Feb-16 10:30N 48°26' W 123°18'0 0.0
2018-Feb-16 10:00N 48°26' W 123°18'0 0.0
2018-Feb-16 09:30N 48°26' W 123°18'0 0.0
2018-Feb-16 09:00N 48°26' W 123°18'0 0.0
2018-Feb-16 08:30N 48°26' W 123°18'0 0.0
2018-Feb-16 08:00N 48°26' W 123°18'0 0.0
2018-Feb-16 07:30N 48°26' W 123°18'0 0.0
2018-Feb-16 07:00N 48°26' W 123°18'0 0.0
2018-Feb-16 06:30N 48°26' W 123°18'0 0.0
2018-Feb-16 06:00N 48°26' W 123°18'0 0.0
2018-Feb-16 05:30N 48°26' W 123°18'0 0.0
2018-Feb-16 04:54N 48°26' W 123°18'0 0.0
2018-Feb-16 04:27N 48°26' W 123°18'0 0.0
2018-Feb-16 04:00N 48°26' W 123°18'0 0.0
2018-Feb-16 03:30N 48°26' W 123°18'0 0.0
2018-Feb-16 03:00N 48°26' W 123°18'0 0.0
2018-Feb-16 02:30N 48°26' W 123°18'0 0.0
2018-Feb-16 02:00N 48°26' W 123°18'0 0.0
2018-Feb-16 01:30N 48°26' W 123°18'0 0.0
2018-Feb-16 01:00N 48°26' W 123°18'0 0.0
2018-Feb-16 00:30N 48°26' W 123°18'0 0.0
2018-Feb-15 23:57N 48°26' W 123°18'0 0.0
2018-Feb-15 23:30N 48°26' W 123°18'0 0.0
2018-Feb-15 23:00N 48°26' W 123°18'0 0.0
2018-Feb-15 22:30N 48°26' W 123°18'0 0.0
2018-Feb-15 22:00N 48°26' W 123°18'0 0.0
2018-Feb-15 21:27N 48°26' W 123°18'0 0.0
2018-Feb-15 21:00N 48°26' W 123°18'0 0.0
2018-Feb-15 20:30N 48°26' W 123°18'0 0.0
2018-Feb-15 19:03N 48°26' W 123°18'0 0.0
2018-Feb-15 18:54N 48°26' W 123°18'0 0.0
2018-Feb-15 18:24N 48°26' W 123°18'0 0.0
2018-Feb-15 17:54N 48°26' W 123°18'0 0.0
2018-Feb-15 17:27N 48°26' W 123°18'0 0.0
2018-Feb-15 16:57N 48°26' W 123°18'0 0.0
2018-Feb-15 16:30N 48°26' W 123°18'0 0.0
2018-Feb-15 16:00N 48°26' W 123°18'0 0.0
2018-Feb-15 15:30N 48°26' W 123°18'0 0.0
2018-Feb-15 15:00N 48°26' W 123°18'0 0.0
2018-Feb-15 14:30N 48°26' W 123°18'0 0.0
2018-Feb-15 14:00N 48°26' W 123°18'0 0.0
2018-Feb-15 13:30N 48°26' W 123°18'0 0.0
2018-Feb-15 13:00N 48°26' W 123°18'0 0.0
2018-Feb-15 12:27N 48°26' W 123°18'0 0.0
2018-Feb-15 12:00N 48°26' W 123°18'0 0.0
2018-Feb-15 11:30N 48°26' W 123°18'0 0.0
2018-Feb-15 11:00N 48°26' W 123°18'0 0.0
2018-Feb-15 10:30N 48°26' W 123°18'0 0.0
2018-Feb-15 10:00N 48°26' W 123°18'0 0.0
2018-Feb-15 09:30N 48°26' W 123°18'0 0.0
2018-Feb-15 09:00N 48°26' W 123°18'0 0.0
2018-Feb-15 08:30N 48°26' W 123°18'0 0.0
2018-Feb-15 08:00N 48°26' W 123°18'0 0.0
2018-Feb-15 07:27N 48°26' W 123°18'0 0.0
2018-Feb-15 07:00N 48°26' W 123°18'0 0.0
2018-Feb-15 06:24N 48°26' W 123°18'0 0.0
2018-Feb-15 06:00N 48°26' W 123°18'0 0.0
2018-Feb-15 05:30N 48°26' W 123°18'0 0.0
2018-Feb-15 05:00N 48°26' W 123°18'0 0.0
2018-Feb-15 04:30N 48°26' W 123°18'0 0.0
2018-Feb-15 04:00N 48°26' W 123°18'0 0.0
2018-Feb-15 03:30N 48°26' W 123°18'0 0.0
2018-Feb-15 03:00N 48°26' W 123°18'0 0.0
2018-Feb-15 02:30N 48°26' W 123°18'0 0.0
2018-Feb-15 02:00N 48°26' W 123°18'0 0.0
2018-Feb-15 01:30N 48°26' W 123°18'0 0.0
2018-Feb-15 01:00N 48°26' W 123°18'0 0.0
2018-Feb-15 00:30N 48°26' W 123°18'0 0.0
2018-Feb-15 00:00N 48°26' W 123°18'0 0.0
2018-Feb-14 23:30N 48°26' W 123°18'0 0.0
2018-Feb-14 23:00N 48°26' W 123°18'0 0.0
2018-Feb-14 22:30N 48°26' W 123°18'0 0.0
2018-Feb-14 21:51N 48°26' W 123°18'0 0.0
2018-Feb-14 21:30N 48°26' W 123°18'0 0.0
2018-Feb-14 20:54N 48°26' W 123°18'0 0.0
2018-Feb-14 20:30N 48°26' W 123°18'0 0.0
2018-Feb-14 19:51N 48°26' W 123°18'0 0.0
2018-Feb-14 19:18N 48°26' W 123°18'0 0.0
2018-Feb-14 18:54N 48°26' W 123°18'0 0.0
2018-Feb-14 18:21N 48°26' W 123°18'0 0.0
2018-Feb-14 18:00N 48°26' W 123°18'0 0.0
2018-Feb-14 17:27N 48°26' W 123°18'0 0.0
2018-Feb-14 16:57N 48°26' W 123°18'0 0.0
2018-Feb-14 16:30N 48°26' W 123°18'0 0.0
2018-Feb-14 15:57N 48°26' W 123°18'0 0.0
2018-Feb-14 15:30N 48°26' W 123°18'0 0.0
2018-Feb-14 15:00N 48°26' W 123°18'0 0.0
2018-Feb-14 14:30N 48°26' W 123°18'0 0.0
2018-Feb-14 14:00N 48°26' W 123°18'0 0.0
2018-Feb-14 13:30N 48°26' W 123°18'0 0.0
2018-Feb-14 12:57N 48°26' W 123°18'0 0.0
2018-Feb-14 12:30N 48°26' W 123°18'0 0.0
2018-Feb-14 12:00N 48°26' W 123°18'0 0.0
2018-Feb-14 11:30N 48°26' W 123°18'0 0.0
2018-Feb-14 11:00N 48°26' W 123°18'0 0.0
2018-Feb-14 10:28N 48°26' W 123°18'0 0.0
2018-Feb-14 09:58N 48°26' W 123°18'0 0.0
2018-Feb-14 09:28N 48°26' W 123°18'0 0.0
2018-Feb-14 08:58N 48°26' W 123°18'0 0.0
2018-Feb-14 08:28N 48°26' W 123°18'0 0.0
2018-Feb-14 07:58N 48°26' W 123°18'0 0.0
2018-Feb-14 07:28N 48°26' W 123°18'0 0.0
2018-Feb-14 06:58N 48°26' W 123°18'0 0.0
2018-Feb-14 06:28N 48°26' W 123°18'0 0.0
2018-Feb-14 05:58N 48°26' W 123°18'0 0.0
2018-Feb-14 05:28N 48°26' W 123°18'0 0.0
2018-Feb-14 04:58N 48°26' W 123°18'0 0.0
2018-Feb-14 04:28N 48°26' W 123°18'0 0.0
2018-Feb-14 03:58N 48°26' W 123°18'0 0.0
2018-Feb-14 03:28N 48°26' W 123°18'0 0.0
2018-Feb-14 02:58N 48°26' W 123°18'0 0.0
2018-Feb-14 02:28N 48°26' W 123°18'0 0.0
2018-Feb-14 01:58N 48°26' W 123°18'0 0.0
2018-Feb-14 01:28N 48°26' W 123°18'0 0.0
2018-Feb-14 00:58N 48°26' W 123°18'0 0.0
2018-Feb-14 00:28N 48°26' W 123°18'0 0.0
2018-Feb-13 23:58N 48°26' W 123°18'0 0.0
2018-Feb-13 23:28N 48°26' W 123°18'0 0.0
2018-Feb-13 22:58N 48°26' W 123°18'0 0.0
2018-Feb-13 22:28N 48°26' W 123°18'0 0.0
2018-Feb-13 21:58N 48°26' W 123°18'0 0.0
2018-Feb-13 21:28N 48°26' W 123°18'0 0.0
2018-Feb-13 20:58N 48°26' W 123°18'0 0.0
2018-Feb-13 20:28N 48°26' W 123°18'0 0.0
2018-Feb-13 19:58N 48°26' W 123°18'0 0.0
2018-Feb-13 19:28N 48°26' W 123°18'0 0.0
2018-Feb-13 18:58N 48°26' W 123°18'0 0.0
2018-Feb-13 18:28N 48°26' W 123°18'0 0.0
2018-Feb-13 17:58N 48°26' W 123°18'0 0.0
2018-Feb-13 17:16N 48°26' W 123°18'0 0.0
2018-Feb-13 16:58N 48°26' W 123°18'0 0.0
2018-Feb-13 16:28N 48°26' W 123°18'0 0.0
2018-Feb-13 15:58N 48°26' W 123°18'0 0.0
2018-Feb-13 15:28N 48°26' W 123°18'0 0.0
2018-Feb-13 14:58N 48°26' W 123°18'0 0.0
2018-Feb-13 14:28N 48°26' W 123°18'0 0.0
2018-Feb-13 13:59N 48°26' W 123°18'0 0.0
2018-Feb-13 13:28N 48°26' W 123°18'0 0.0
2018-Feb-13 12:58N 48°26' W 123°18'0 0.0
2018-Feb-13 12:28N 48°26' W 123°18'0 0.0
2018-Feb-13 11:58N 48°26' W 123°18'0 0.0
2018-Feb-13 11:28N 48°26' W 123°18'0 0.0
2018-Feb-13 10:58N 48°26' W 123°18'0 0.0
2018-Feb-13 10:28N 48°26' W 123°18'0 0.0
2018-Feb-13 09:58N 48°26' W 123°18'0 0.0
2018-Feb-13 09:28N 48°26' W 123°18'0 0.0
2018-Feb-13 08:58N 48°26' W 123°18'0 0.0
2018-Feb-13 08:28N 48°26' W 123°18'0 0.0
2018-Feb-13 07:58N 48°26' W 123°18'0 0.0
2018-Feb-13 07:28N 48°26' W 123°18'0 0.0
2018-Feb-13 06:58N 48°26' W 123°18'0 0.0
2018-Feb-13 06:28N 48°26' W 123°18'0 0.0
2018-Feb-13 05:58N 48°26' W 123°18'0 0.0
2018-Feb-13 05:28N 48°26' W 123°18'0 0.0
2018-Feb-13 04:58N 48°26' W 123°18'0 0.0
2018-Feb-13 04:28N 48°26' W 123°18'0 0.0
2018-Feb-13 03:58N 48°26' W 123°18'0 0.0
2018-Feb-13 03:28N 48°26' W 123°18'0 0.0
2018-Feb-13 02:58N 48°26' W 123°18'0 0.0
2018-Feb-13 02:28N 48°26' W 123°18'0 0.0
2018-Feb-13 01:58N 48°26' W 123°18'0 0.0
2018-Feb-13 01:28N 48°26' W 123°18'0 0.0
2018-Feb-13 00:58N 48°26' W 123°18'0 0.0
2018-Feb-13 00:28N 48°26' W 123°18'0 0.0
2018-Feb-12 23:58N 48°26' W 123°18'0 0.0
2018-Feb-12 23:28N 48°26' W 123°18'0 0.0
2018-Feb-12 22:58N 48°26' W 123°18'0 0.0
2018-Feb-12 22:28N 48°26' W 123°18'0 0.0
2018-Feb-12 21:58N 48°26' W 123°18'0 0.0
2018-Feb-12 21:28N 48°26' W 123°18'0 0.0
2018-Feb-12 20:58N 48°26' W 123°18'0 0.0
2018-Feb-12 20:28N 48°26' W 123°18'0 0.0
2018-Feb-12 19:55N 48°26' W 123°18'0 0.0
2018-Feb-12 19:28N 48°26' W 123°18'0 0.0
2018-Feb-12 18:58N 48°26' W 123°18'0 0.0
2018-Feb-12 18:28N 48°26' W 123°18'0 0.0
2018-Feb-12 17:58N 48°26' W 123°18'0 0.0
2018-Feb-12 17:25N 48°26' W 123°18'0 0.0
2018-Feb-12 16:58N 48°26' W 123°18'0 0.0
2018-Feb-12 16:28N 48°26' W 123°18'0 0.0
2018-Feb-12 15:58N 48°26' W 123°18'0 0.0
2018-Feb-12 15:16N 48°26' W 123°18'0 0.0
2018-Feb-12 14:58N 48°26' W 123°18'0 0.0
2018-Feb-12 14:28N 48°26' W 123°18'0 0.0
2018-Feb-12 13:58N 48°26' W 123°18'0 0.0
2018-Feb-12 13:28N 48°26' W 123°18'0 0.0
2018-Feb-12 12:55N 48°26' W 123°18'0 0.0
2018-Feb-12 12:28N 48°26' W 123°18'0 0.0
2018-Feb-12 11:58N 48°26' W 123°18'0 0.0
2018-Feb-12 11:28N 48°26' W 123°18'0 0.0
2018-Feb-12 10:58N 48°26' W 123°18'0 0.0
2018-Feb-12 10:28N 48°26' W 123°18'0 0.0
2018-Feb-12 09:58N 48°26' W 123°18'0 0.0
2018-Feb-12 09:25N 48°26' W 123°18'0 0.0
2018-Feb-12 08:55N 48°26' W 123°18'0 0.0
2018-Feb-12 05:58N 48°26' W 123°18'0 0.0
2018-Feb-12 05:28N 48°26' W 123°18'0 0.0
2018-Feb-12 04:58N 48°26' W 123°18'0 0.0
2018-Feb-12 04:28N 48°26' W 123°18'0 0.0
2018-Feb-12 03:58N 48°26' W 123°18'0 0.0
2018-Feb-12 03:25N 48°26' W 123°18'0 0.0
2018-Feb-12 02:58N 48°26' W 123°18'0 0.0
2018-Feb-12 02:22N 48°26' W 123°18'0 0.0
2018-Feb-12 01:55N 48°26' W 123°18'0 0.0
2018-Feb-12 01:22N 48°26' W 123°18'0 0.0
2018-Feb-12 00:52N 48°26' W 123°18'0 0.0
2018-Feb-12 00:10N 48°26' W 123°18'0 0.0
2018-Feb-11 23:58N 48°26' W 123°18'0 0.0
2018-Feb-11 23:28N 48°26' W 123°18'0 0.0
2018-Feb-11 22:58N 48°26' W 123°18'0 0.0
2018-Feb-11 22:28N 48°26' W 123°18'0 0.0
2018-Feb-11 21:58N 48°26' W 123°18'0 0.0
2018-Feb-11 21:28N 48°26' W 123°18'0 0.0
2018-Feb-11 20:58N 48°26' W 123°18'0 0.0
2018-Feb-11 20:28N 48°26' W 123°18'0 0.0
2018-Feb-11 19:58N 48°26' W 123°18'0 0.0
2018-Feb-11 19:28N 48°26' W 123°18'  

Dump ship's entire track history